createdAt,value
2023-01-06T00:02:50.306Z,101207.31
2023-01-06T00:07:52.326Z,101210.81
2023-01-06T00:12:55.443Z,101198.75
2023-01-06T00:17:57.126Z,101192.72
2023-01-06T00:22:58.802Z,101194.63
2023-01-06T00:28:01.813Z,101191.03
2023-01-06T00:33:03.626Z,101183.34
2023-01-06T00:38:05.339Z,101178.91
2023-01-06T00:43:08.432Z,101173.69
2023-01-06T00:48:10.152Z,101171.28
2023-01-06T00:53:12.057Z,101157.41
2023-01-06T00:58:15.107Z,101162.81
2023-01-06T01:03:16.911Z,101154.19
2023-01-06T01:08:18.588Z,101139.41
2023-01-06T01:13:21.572Z,101143.78
2023-01-06T01:18:23.467Z,101134.19
2023-01-06T01:23:25.123Z,101143.00
2023-01-06T01:28:28.186Z,101150.88
2023-01-06T01:33:30.012Z,101136.06
2023-01-06T01:38:31.715Z,101131.69
2023-01-06T01:43:45.184Z,101129.00
2023-01-06T01:48:46.855Z,101137.72
2023-01-06T01:53:49.895Z,101121.34
2023-01-06T01:58:54.399Z,101130.16
2023-01-06T02:03:56.056Z,101124.81
2023-01-06T02:09:01.865Z,101120.59
2023-01-06T02:14:09.846Z,101115.31
2023-01-06T02:19:20.023Z,101110.91
2023-01-06T02:24:45.037Z,101102.34
2023-01-06T02:30:26.486Z,101085.88
2023-01-06T02:35:50.678Z,101084.06
2023-01-06T02:41:00.327Z,101074.50
2023-01-06T02:46:07.961Z,101067.63
2023-01-06T02:51:14.049Z,101062.38
2023-01-06T02:56:15.733Z,101062.59
2023-01-06T03:01:22.545Z,101052.97
2023-01-06T03:06:26.502Z,101040.78
2023-01-06T03:11:29.356Z,101029.34
2023-01-06T03:16:31.190Z,101038.03
2023-01-06T03:21:35.914Z,101031.75
2023-01-06T03:26:39.175Z,101030.16
2023-01-06T03:31:46.923Z,101034.66
2023-01-06T03:36:53.125Z,101018.16
2023-01-06T03:42:31.470Z,101019.03
2023-01-06T03:47:39.191Z,101019.13
2023-01-06T03:52:43.345Z,101005.19
2023-01-06T03:57:46.406Z,100999.09
2023-01-06T04:02:48.667Z,100998.28
2023-01-06T04:07:55.171Z,100988.00
2023-01-06T04:12:58.020Z,100988.00
2023-01-06T04:18:04.380Z,100976.69
2023-01-06T04:23:10.743Z,100985.44
2023-01-06T04:28:14.914Z,100973.25
2023-01-06T04:33:17.837Z,100965.44
2023-01-06T04:38:23.858Z,100962.91
2023-01-06T04:43:25.497Z,100966.38
2023-01-06T04:48:27.179Z,100952.63
2023-01-06T04:53:30.363Z,100940.44
2023-01-06T04:58:32.041Z,100946.53
2023-01-06T05:03:35.177Z,100937.94
2023-01-06T05:08:38.455Z,100931.84
2023-01-06T05:13:40.255Z,100920.56
2023-01-06T05:18:42.024Z,100924.03
2023-01-06T05:23:45.309Z,100924.00
2023-01-06T05:28:47.103Z,100904.94
2023-01-06T05:33:48.895Z,100898.78
2023-01-06T05:38:55.086Z,100912.75
2023-01-06T05:43:57.396Z,100909.28
2023-01-06T05:49:00.143Z,100902.38
2023-01-06T05:54:07.051Z,100903.34
2023-01-06T05:59:08.763Z,100909.44
2023-01-06T06:04:11.758Z,100902.44
2023-01-06T06:09:15.047Z,100903.31
2023-01-06T06:14:17.409Z,100902.47
2023-01-06T06:19:19.212Z,100909.50
2023-01-06T06:24:22.194Z,100898.25
2023-01-06T06:29:23.880Z,100895.53
2023-01-06T06:34:25.696Z,100895.59
2023-01-06T06:39:28.691Z,100886.84
2023-01-06T06:44:30.331Z,100864.16
2023-01-06T06:49:32.055Z,100874.63
2023-01-06T06:54:35.139Z,100872.88
2023-01-06T06:59:36.849Z,100879.84
2023-01-06T07:04:38.543Z,100884.25
2023-01-06T07:09:41.581Z,100871.22
2023-01-06T07:14:43.225Z,100859.84
2023-01-06T07:19:45.127Z,100846.78
2023-01-06T07:24:48.132Z,100838.09
2023-01-06T07:29:49.794Z,100838.09
2023-01-06T07:34:51.503Z,100836.38
2023-01-06T07:39:54.506Z,100830.25
2023-01-06T07:44:56.205Z,100832.88
2023-01-06T07:49:57.991Z,100845.09
2023-01-06T07:55:01.017Z,100852.91
2023-01-06T08:00:03.424Z,100841.63
2023-01-06T08:05:13.680Z,100845.91
2023-01-06T08:10:16.800Z,100842.47
2023-01-06T08:15:18.960Z,100833.84
2023-01-06T08:20:20.823Z,100843.38
2023-01-06T08:25:23.888Z,100843.38
2023-01-06T08:30:25.589Z,100846.00
2023-01-06T08:35:27.317Z,100838.09
2023-01-06T08:40:30.365Z,100844.25
2023-01-06T08:45:32.057Z,100838.19
2023-01-06T08:50:33.726Z,100832.94
2023-01-06T08:55:39.275Z,100830.38
2023-01-06T09:00:41.362Z,100821.66
2023-01-06T09:05:43.057Z,100805.09
2023-01-06T09:10:46.059Z,100820.84
2023-01-06T09:15:48.936Z,100819.13
2023-01-06T09:20:50.761Z,100824.34
2023-01-06T09:25:54.339Z,100827.84
2023-01-06T09:30:56.049Z,100826.09
2023-01-06T09:35:57.809Z,100832.19
2023-01-06T09:41:38.106Z,100828.69
2023-01-06T09:46:41.105Z,100819.09
2023-01-06T09:51:42.805Z,100823.47
2023-01-06T09:56:49.050Z,100814.75
2023-01-06T10:01:50.923Z,100824.34
2023-01-06T10:06:55.395Z,100822.59
2023-01-06T10:12:02.057Z,100824.31
2023-01-06T10:17:15.130Z,100801.66
2023-01-06T10:22:19.077Z,100817.31
2023-01-06T10:27:26.761Z,100812.94
2023-01-06T10:32:29.665Z,100810.31
2023-01-06T10:37:36.966Z,100812.03
2023-01-06T10:42:57.201Z,100817.22
2023-01-06T10:47:59.109Z,100798.91
2023-01-06T10:53:00.904Z,100806.72
2023-01-06T10:58:13.060Z,100816.34
2023-01-06T11:03:32.310Z,100809.38
2023-01-06T11:08:35.611Z,100798.06
2023-01-06T11:13:39.379Z,100801.50
2023-01-06T11:18:41.050Z,100803.28
2023-01-06T11:23:43.432Z,100805.84
2023-01-06T11:28:47.045Z,100808.47
2023-01-06T11:33:51.137Z,100800.59
2023-01-06T11:38:55.290Z,100799.78
2023-01-06T11:44:05.785Z,100804.13
2023-01-06T11:49:10.814Z,100786.69
2023-01-06T11:54:22.331Z,100784.16
2023-01-06T11:59:25.469Z,100805.91
2023-01-06T12:04:30.121Z,100802.38
2023-01-06T12:09:33.601Z,100801.53
2023-01-06T12:14:37.658Z,100796.31
2023-01-06T12:19:40.701Z,100814.63
2023-01-06T12:24:42.488Z,100813.75
2023-01-06T12:29:45.513Z,100819.91
2023-01-06T12:34:48.643Z,100823.44
2023-01-06T12:39:53.643Z,100827.81
2023-01-06T12:44:58.393Z,100831.31
2023-01-06T12:50:04.286Z,100829.56
2023-01-06T12:55:06.720Z,100833.06
2023-01-06T13:00:22.509Z,100847.91
2023-01-06T13:05:39.299Z,100843.53
2023-01-06T13:10:44.048Z,100847.91
2023-01-06T13:15:47.025Z,100853.97
2023-01-06T13:20:49.887Z,100860.09
2023-01-06T13:26:17.272Z,100860.00
2023-01-06T13:31:33.399Z,100855.63
2023-01-06T13:37:01.310Z,100856.53
2023-01-06T13:42:04.291Z,100867.94
2023-01-06T13:47:09.360Z,100877.56
2023-01-06T13:52:16.454Z,100885.47
2023-01-06T13:57:24.785Z,100877.59
2023-01-06T14:03:01.731Z,100877.59
2023-01-06T14:08:04.177Z,100895.97
2023-01-06T14:13:16.105Z,100895.06
2023-01-06T14:18:30.206Z,100913.38
2023-01-06T14:23:31.865Z,100916.84
2023-01-06T14:28:33.907Z,100936.06
2023-01-06T14:33:36.965Z,100952.63
2023-01-06T14:38:42.454Z,100952.56
2023-01-06T14:43:50.156Z,100948.13
2023-01-06T14:48:55.677Z,100951.53
2023-01-06T14:54:00.019Z,100953.22
2023-01-06T14:59:08.786Z,100945.34
2023-01-06T15:04:23.290Z,100941.81
2023-01-06T15:09:25.009Z,100943.63
2023-01-06T15:14:28.251Z,100956.72
2023-01-06T15:19:31.302Z,100952.22
2023-01-06T15:24:35.385Z,100967.75
2023-01-06T15:29:37.138Z,100966.78
2023-01-06T15:34:42.650Z,100974.50
2023-01-06T15:39:44.410Z,100973.59
2023-01-06T15:44:53.949Z,100977.00
2023-01-06T15:49:57.342Z,100980.44
2023-01-06T15:55:00.595Z,100979.50
2023-01-06T16:00:03.975Z,100987.31
2023-01-06T16:05:36.607Z,100991.63
2023-01-06T16:10:39.726Z,100993.28
2023-01-06T16:15:45.312Z,101002.06
2023-01-06T16:20:47.142Z,101010.75
2023-01-06T16:25:51.690Z,101015.00
2023-01-06T16:31:12.098Z,101020.19
2023-01-06T16:36:15.138Z,101011.44
2023-01-06T16:41:18.868Z,101015.78
2023-01-06T16:46:22.231Z,101015.69
2023-01-06T16:51:23.999Z,101019.19
2023-01-06T16:56:27.100Z,101021.78
2023-01-06T17:01:28.876Z,101020.03
2023-01-06T17:06:30.857Z,101012.22
2023-01-06T17:11:34.452Z,101017.44
2023-01-06T17:16:36.504Z,101011.38
2023-01-06T17:21:38.730Z,101009.66
2023-01-06T17:26:42.638Z,101013.31
2023-01-06T17:31:45.183Z,101022.97
2023-01-06T17:36:48.043Z,101029.03
2023-01-06T17:41:51.884Z,101042.84
2023-01-06T17:46:53.642Z,101049.78
2023-01-06T17:51:55.941Z,101055.00
2023-01-06T17:56:59.273Z,101057.53
2023-01-06T18:02:01.346Z,101064.50
2023-01-06T18:07:08.120Z,101067.88
2023-01-06T18:12:12.536Z,101064.41
2023-01-06T18:17:17.376Z,101072.97
2023-01-06T18:22:20.218Z,101067.69
2023-01-06T18:27:24.308Z,101071.28
2023-01-06T18:32:28.455Z,101074.75
2023-01-06T18:37:31.496Z,101073.91
2023-01-06T18:42:35.166Z,101080.91
2023-01-06T18:47:37.816Z,101082.69
2023-01-06T18:52:41.247Z,101079.13
2023-01-06T18:57:45.890Z,101080.09
2023-01-06T19:02:50.582Z,101085.38
2023-01-06T19:07:52.265Z,101088.88
2023-01-06T19:12:55.564Z,101091.47
2023-01-06T19:17:57.270Z,101094.88
2023-01-06T19:22:58.984Z,101099.13
2023-01-06T19:28:02.540Z,101095.59
2023-01-06T19:33:19.346Z,101091.16
2023-01-06T19:38:25.391Z,101093.72
2023-01-06T19:43:30.300Z,101098.91
2023-01-06T19:48:36.390Z,101091.09
2023-01-06T19:53:41.784Z,101093.50
2023-01-06T19:58:46.512Z,101094.34
2023-01-06T20:03:48.516Z,101099.47
2023-01-06T20:08:53.162Z,101094.97
2023-01-06T20:13:56.163Z,101102.81
2023-01-06T20:18:57.878Z,101108.03
2023-01-06T20:23:59.619Z,101104.44
2023-01-06T20:29:04.164Z,101110.56
2023-01-06T20:34:05.994Z,101109.66
2023-01-06T20:39:07.737Z,101110.31
2023-01-06T20:44:13.058Z,101109.34
2023-01-06T20:49:16.960Z,101104.94
2023-01-06T20:54:18.682Z,101106.56
2023-01-06T20:59:21.799Z,101109.06
2023-01-06T21:04:23.536Z,101102.75
2023-01-06T21:09:29.336Z,101108.78
2023-01-06T21:14:33.933Z,101105.16
2023-01-06T21:19:35.674Z,101105.97
2023-01-06T21:24:37.432Z,101105.91
2023-01-06T21:29:40.534Z,101105.03
2023-01-06T21:34:42.500Z,101107.63
2023-01-06T21:39:46.020Z,101101.50
2023-01-06T21:44:50.836Z,101104.13
2023-01-06T21:49:52.479Z,101098.16
2023-01-06T21:54:54.496Z,101100.88
2023-01-06T21:59:57.547Z,101091.00
2023-01-06T22:05:02.660Z,101097.28
2023-01-06T22:10:06.090Z,101112.81
2023-01-06T22:15:09.849Z,101109.53
2023-01-06T22:20:11.734Z,101114.78
2023-01-06T22:25:13.460Z,101116.75
2023-01-06T22:30:16.756Z,101115.88
2023-01-06T22:35:18.562Z,101115.03
2023-01-06T22:40:20.300Z,101123.03
2023-01-06T22:45:23.354Z,101119.56
2023-01-06T22:50:25.073Z,101115.25
2023-01-06T22:55:26.765Z,101111.63
2023-01-06T23:00:29.779Z,101113.31
2023-01-06T23:05:31.480Z,101101.97
2023-01-06T23:10:34.937Z,101106.09
2023-01-06T23:15:38.066Z,101097.38
2023-01-06T23:20:39.778Z,101102.50
2023-01-06T23:25:41.517Z,101093.84
2023-01-06T23:30:44.607Z,101090.41
2023-01-06T23:35:46.345Z,101086.91
2023-01-06T23:40:48.056Z,101076.50
2023-01-06T23:45:51.117Z,101081.66
2023-01-06T23:50:52.791Z,101067.75
2023-01-06T23:55:55.464Z,101066.75
